createdAt,value
2022-08-09T00:01:17.513Z,95047.06
2022-08-09T00:04:00.180Z,95053.50
2022-08-09T00:06:31.996Z,95047.25
2022-08-09T00:08:59.680Z,95050.41
2022-08-09T00:12:01.522Z,95039.66
2022-08-09T00:14:17.285Z,95042.34
2022-08-09T00:16:50.517Z,95047.63
2022-08-09T00:24:22.090Z,95054.34
2022-08-09T00:26:52.527Z,95059.06
2022-08-09T00:29:39.686Z,95050.41
2022-08-09T00:32:07.894Z,95052.97
2022-08-09T00:34:40.227Z,95053.94
2022-08-09T00:37:19.442Z,95050.00
2022-08-09T00:40:13.262Z,95057.34
2022-08-09T00:47:39.673Z,95064.47
2022-08-09T00:50:08.481Z,95054.34
2022-08-09T00:52:42.838Z,95061.41
2022-08-09T00:55:16.880Z,95054.25
2022-08-09T00:57:59.080Z,95049.50
2022-08-09T01:00:27.950Z,95041.47
2022-08-09T01:03:06.913Z,95048.47
2022-08-09T01:10:51.917Z,95043.31
2022-08-09T01:13:31.149Z,95048.31
2022-08-09T01:16:12.945Z,95053.41
2022-08-09T01:18:47.678Z,95046.94
2022-08-09T01:21:45.144Z,95043.97
2022-08-09T01:24:35.588Z,95043.09
2022-08-09T01:30:35.576Z,95048.78
2022-08-09T01:33:18.285Z,95049.56
2022-08-09T01:35:51.964Z,95042.00
2022-08-09T01:38:24.557Z,95041.44
2022-08-09T01:41:05.098Z,95042.44
2022-08-09T01:43:51.309Z,95044.22
2022-08-09T01:46:25.099Z,95040.31
2022-08-09T01:54:01.674Z,95053.75
2022-08-09T01:56:31.271Z,95044.38
2022-08-09T01:59:02.333Z,95054.16
2022-08-09T02:01:59.925Z,95052.91
2022-08-09T02:04:22.050Z,95052.84
2022-08-09T02:07:17.850Z,95052.31
2022-08-09T02:18:00.176Z,95043.59
2022-08-09T02:20:38.535Z,95043.09
2022-08-09T02:23:10.067Z,95046.44
2022-08-09T02:25:42.357Z,95043.28
2022-08-09T02:28:17.974Z,95043.63
2022-08-09T02:30:50.633Z,95045.50
2022-08-09T02:37:06.762Z,95053.81
2022-08-09T02:39:41.840Z,95051.66
2022-08-09T02:42:16.193Z,95045.78
2022-08-09T02:44:48.251Z,95048.69
2022-08-09T02:47:18.724Z,95054.03
2022-08-09T02:49:55.413Z,95043.59
2022-08-09T02:52:50.195Z,95048.19
2022-08-09T03:00:25.919Z,95041.75
2022-08-09T03:02:58.505Z,95041.50
2022-08-09T03:05:34.564Z,95035.59
2022-08-09T03:08:04.844Z,95041.50
2022-08-09T03:10:34.742Z,95044.75
2022-08-09T03:13:03.230Z,95050.09
2022-08-09T03:16:04.909Z,95051.44
2022-08-09T03:23:30.549Z,95060.03
2022-08-09T03:26:03.720Z,95062.44
2022-08-09T03:28:34.761Z,95062.97
2022-08-09T03:31:09.889Z,95059.75
2022-08-09T03:33:54.546Z,95061.59
2022-08-09T03:36:27.483Z,95059.22
2022-08-09T03:38:57.050Z,95053.84
2022-08-09T03:46:04.251Z,95062.94
2022-08-09T03:48:36.982Z,95056.75
2022-08-09T03:51:55.814Z,95064.78
2022-08-09T03:54:00.914Z,95062.09
2022-08-09T03:56:30.701Z,95064.50
2022-08-09T03:58:58.357Z,95063.97
2022-08-09T04:01:27.111Z,95063.44
2022-08-09T04:09:02.704Z,95060.97
2022-08-09T04:12:30.975Z,95059.59
2022-08-09T04:15:01.709Z,95062.03
2022-08-09T04:17:31.449Z,95064.41
2022-08-09T04:20:02.584Z,95066.78
2022-08-09T04:22:32.016Z,95066.72
2022-08-09T04:25:01.277Z,95073.94
2022-08-09T04:32:37.005Z,95067.44
2022-08-09T04:35:08.705Z,95072.50
2022-08-09T04:37:45.049Z,95070.38
2022-08-09T04:40:29.034Z,95069.56
2022-08-09T04:43:02.494Z,95084.81
2022-08-09T04:45:35.939Z,95075.66
2022-08-09T04:48:12.242Z,95075.06
2022-08-09T04:55:37.902Z,95094.91
2022-08-09T04:58:09.807Z,95077.47
2022-08-09T05:00:37.575Z,95083.28
2022-08-09T05:03:30.124Z,95092.84
2022-08-09T05:06:07.016Z,95086.13
2022-08-09T05:08:35.667Z,95091.59
2022-08-09T05:11:07.489Z,95087.66
2022-08-09T05:18:57.640Z,95087.78
2022-08-09T05:21:30.202Z,95089.31
2022-08-09T05:24:05.164Z,95094.97
2022-08-09T05:26:36.791Z,95096.66
2022-08-09T05:29:16.981Z,95096.66
2022-08-09T05:31:51.948Z,95112.63
2022-08-09T05:39:53.253Z,95108.97
2022-08-09T05:42:27.901Z,95104.97
2022-08-09T05:44:56.346Z,95098.41
2022-08-09T05:47:27.080Z,95097.53
2022-08-09T05:50:25.210Z,95109.34
2022-08-09T05:52:53.587Z,95104.84
2022-08-09T05:55:23.922Z,95105.69
2022-08-09T06:02:57.385Z,95109.66
2022-08-09T06:05:49.745Z,95106.72
2022-08-09T06:08:13.100Z,95108.31
2022-08-09T06:10:40.997Z,95102.13
2022-08-09T06:13:18.367Z,95108.25
2022-08-09T06:15:51.121Z,95109.19
2022-08-09T06:18:23.834Z,95109.34
2022-08-09T06:26:01.566Z,95118.69
2022-08-09T06:28:31.883Z,95123.56
2022-08-09T06:30:59.501Z,95123.69
2022-08-09T06:33:39.873Z,95119.97
2022-08-09T06:36:13.631Z,95120.22
2022-08-09T06:38:47.214Z,95126.69
2022-08-09T06:41:20.409Z,95122.13
2022-08-09T06:48:48.653Z,95110.59
2022-08-09T06:51:16.647Z,95105.63
2022-08-09T06:53:44.367Z,95106.16
2022-08-09T06:56:11.769Z,95109.41
2022-08-09T07:00:48.935Z,95112.50
2022-08-09T07:01:52.723Z,95102.09
2022-08-09T07:04:19.920Z,95104.38
2022-08-09T07:11:53.274Z,95106.38
2022-08-09T07:14:26.567Z,95105.66
2022-08-09T07:16:58.003Z,95105.91
2022-08-09T07:19:26.095Z,95104.63
2022-08-09T07:21:57.624Z,95105.00
2022-08-09T07:24:32.642Z,95107.91
2022-08-09T07:27:26.827Z,95103.66
2022-08-09T07:35:02.798Z,95096.53
2022-08-09T07:37:40.482Z,95107.59
2022-08-09T07:40:16.758Z,95094.56
2022-08-09T07:42:56.274Z,95099.31
2022-08-09T07:45:39.257Z,95099.25
2022-08-09T07:48:25.908Z,95099.72
2022-08-09T07:54:34.265Z,95097.38
2022-08-09T07:57:02.138Z,95094.28
2022-08-09T07:59:45.496Z,95094.81
2022-08-09T08:02:19.166Z,95099.72
2022-08-09T08:04:48.951Z,95089.94
2022-08-09T08:08:43.724Z,95088.56
2022-08-09T08:15:24.236Z,95090.84
2022-08-09T08:17:57.891Z,95082.03
2022-08-09T08:20:30.146Z,95081.19
2022-08-09T08:23:03.492Z,95081.97
2022-08-09T08:25:46.515Z,95076.22
2022-08-09T08:28:18.342Z,95065.44
2022-08-09T08:31:04.676Z,95066.59
2022-08-09T08:38:42.308Z,95067.28
2022-08-09T08:41:12.367Z,95070.41
2022-08-09T08:43:41.142Z,95060.63
2022-08-09T08:46:32.016Z,95064.22
2022-08-09T08:49:01.662Z,95064.44
2022-08-09T08:51:41.903Z,95073.78
2022-08-09T08:59:47.061Z,95061.78
2022-08-09T09:02:30.917Z,95060.31
2022-08-09T09:05:06.188Z,95057.31
2022-08-09T09:07:42.495Z,95058.13
2022-08-09T09:10:11.737Z,95065.50
2022-08-09T09:12:40.775Z,95049.28
2022-08-09T09:15:12.093Z,95053.59
2022-08-09T09:22:23.884Z,95046.06
2022-08-09T09:26:01.932Z,95035.94
2022-08-09T09:28:05.298Z,95038.84
2022-08-09T09:30:40.855Z,95029.00
2022-08-09T09:33:13.931Z,95034.09
2022-08-09T09:36:00.690Z,95035.84
2022-08-09T09:45:30.701Z,95028.38
2022-08-09T09:48:03.954Z,95032.94
2022-08-09T09:50:49.697Z,95024.44
2022-08-09T09:53:25.043Z,95025.88
2022-08-09T09:56:20.090Z,95017.47
2022-08-09T09:58:57.673Z,95023.59
2022-08-09T10:06:42.985Z,95028.44
2022-08-09T10:09:22.331Z,95018.41
2022-08-09T10:12:07.860Z,95025.03
2022-08-09T10:14:48.251Z,95011.78
2022-08-09T10:17:39.339Z,95010.69
2022-08-09T10:20:32.307Z,95016.78
2022-08-09T10:28:04.351Z,95013.88
2022-08-09T10:33:29.612Z,95019.84
2022-08-09T10:36:12.155Z,95006.22
2022-08-09T10:38:57.175Z,95009.97
2022-08-09T10:41:28.397Z,95004.97
2022-08-09T10:49:10.478Z,95005.06
2022-08-09T10:51:45.600Z,95006.03
2022-08-09T10:54:23.762Z,94995.59
2022-08-09T10:57:07.642Z,95020.50
2022-08-09T10:59:55.702Z,95000.06
2022-08-09T11:03:13.435Z,95000.91
2022-08-09T11:10:59.009Z,95007.41
2022-08-09T11:13:49.916Z,94988.25
2022-08-09T11:16:35.599Z,94995.78
2022-08-09T11:19:10.302Z,94994.84
2022-08-09T11:22:16.908Z,94998.75
2022-08-09T11:25:08.226Z,94991.84
2022-08-09T11:30:35.544Z,94982.09
2022-08-09T11:33:06.259Z,94970.41
2022-08-09T11:35:49.210Z,94983.81
2022-08-09T11:38:22.377Z,94981.13
2022-08-09T11:40:56.764Z,94976.97
2022-08-09T11:43:41.859Z,94967.25
2022-08-09T11:46:11.118Z,94967.34
2022-08-09T11:54:01.569Z,94966.94
2022-08-09T11:56:41.327Z,94977.28
2022-08-09T11:59:11.726Z,94964.00
2022-08-09T12:02:17.501Z,94964.88
2022-08-09T12:04:37.309Z,94962.81
2022-08-09T12:07:08.469Z,94961.47
2022-08-09T12:12:46.298Z,94959.72
2022-08-09T12:15:48.451Z,94948.78
2022-08-09T12:18:16.618Z,94946.72
2022-08-09T12:20:44.993Z,94944.91
2022-08-09T12:23:14.394Z,94950.22
2022-08-09T12:25:54.685Z,94953.81
2022-08-09T12:31:30.956Z,94931.78
2022-08-09T12:34:07.264Z,94931.69
2022-08-09T12:36:36.137Z,94937.63
2022-08-09T12:39:14.736Z,94939.03
2022-08-09T12:41:42.575Z,94928.69
2022-08-09T12:44:12.936Z,94922.47
2022-08-09T12:49:21.771Z,94910.63
2022-08-09T12:52:02.394Z,94906.44
2022-08-09T12:55:03.134Z,94901.88
2022-08-09T12:57:39.499Z,94898.16
2022-08-09T13:00:25.285Z,94905.84
2022-08-09T13:02:55.643Z,94904.53
2022-08-09T13:10:27.367Z,94908.22
2022-08-09T13:13:09.174Z,94908.28
2022-08-09T13:15:52.220Z,94908.19
2022-08-09T13:18:20.908Z,94922.81
2022-08-09T13:21:20.557Z,94925.06
2022-08-09T13:24:17.266Z,94921.25
2022-08-09T13:32:17.315Z,94920.38
2022-08-09T13:34:22.568Z,94912.38
2022-08-09T13:36:52.495Z,94917.97
2022-08-09T13:41:51.801Z,94907.38
2022-08-09T13:42:12.337Z,94918.75
2022-08-09T13:44:43.020Z,94916.72
2022-08-09T13:50:01.824Z,94924.69
2022-08-09T13:52:33.509Z,94915.25
2022-08-09T13:55:05.101Z,94912.50
2022-08-09T13:57:39.806Z,94902.25
2022-08-09T14:00:13.058Z,94906.91
2022-08-09T14:03:05.040Z,94906.63
2022-08-09T14:05:58.822Z,94894.41
2022-08-09T14:14:15.857Z,94893.63
2022-08-09T14:16:14.875Z,94884.91
2022-08-09T14:18:50.328Z,94884.47
2022-08-09T14:21:22.685Z,94887.16
2022-08-09T14:23:55.439Z,94875.50
2022-08-09T14:26:31.581Z,94885.63
2022-08-09T14:31:55.423Z,94868.53
2022-08-09T14:34:32.324Z,94879.81
2022-08-09T14:37:02.476Z,94876.59
2022-08-09T14:39:46.212Z,94882.28
2022-08-09T14:42:30.530Z,94875.97
2022-08-09T14:46:40.014Z,94868.22
2022-08-09T14:47:58.214Z,94877.00
2022-08-09T14:55:32.371Z,94866.66
2022-08-09T14:58:03.009Z,94866.47
2022-08-09T15:00:32.318Z,94885.28
2022-08-09T15:03:02.308Z,94866.47
2022-08-09T15:05:32.195Z,94870.75
2022-08-09T15:08:00.040Z,94861.75
2022-08-09T15:10:31.778Z,94872.13
2022-08-09T15:17:41.498Z,94848.25
2022-08-09T15:20:15.137Z,94849.63
2022-08-09T15:23:02.873Z,94850.66
2022-08-09T15:25:47.155Z,94848.28
2022-08-09T15:28:26.429Z,94842.69
2022-08-09T15:31:03.170Z,94850.78
2022-08-09T15:34:17.311Z,94842.25
2022-08-09T15:41:31.291Z,94851.88
2022-08-09T15:44:00.288Z,94864.72
2022-08-09T15:46:32.828Z,94863.84
2022-08-09T15:49:22.975Z,94867.72
2022-08-09T15:52:02.785Z,94868.22
2022-08-09T15:54:42.993Z,94869.97
2022-08-09T15:57:18.708Z,94860.47
2022-08-09T16:05:08.167Z,94853.16
2022-08-09T16:07:38.981Z,94863.47
2022-08-09T16:10:11.216Z,94858.75
2022-08-09T16:12:50.143Z,94859.53
2022-08-09T16:16:04.504Z,94864.81
2022-08-09T16:18:08.524Z,94857.63
2022-08-09T16:20:38.001Z,94855.16
2022-08-09T16:27:47.973Z,94853.06
2022-08-09T16:30:29.417Z,94852.53
2022-08-09T16:33:09.469Z,94855.66
2022-08-09T16:35:56.379Z,94863.03
2022-08-09T16:38:25.463Z,94853.63
2022-08-09T16:40:53.515Z,94859.19
2022-08-09T16:50:29.087Z,94871.59
2022-08-09T16:52:34.573Z,94874.56
2022-08-09T16:55:02.584Z,94882.38
2022-08-09T16:58:09.108Z,94877.63
2022-08-09T17:00:18.702Z,94894.59
2022-08-09T17:02:47.048Z,94892.91
2022-08-09T17:08:43.599Z,94895.19
2022-08-09T17:10:39.821Z,94904.50
2022-08-09T17:13:10.575Z,94910.47
2022-08-09T17:15:59.705Z,94911.53
2022-08-09T17:18:26.739Z,94914.41
2022-08-09T17:20:58.118Z,94917.41
2022-08-09T17:24:20.213Z,94920.16
2022-08-09T17:31:15.995Z,94926.34
2022-08-09T17:33:43.857Z,94935.09
2022-08-09T17:36:15.707Z,94931.16
2022-08-09T17:38:57.487Z,94941.06
2022-08-09T17:41:38.655Z,94945.16
2022-08-09T17:44:41.963Z,94954.56
2022-08-09T17:46:57.622Z,94953.00
2022-08-09T17:54:10.063Z,94957.75
2022-08-09T17:56:44.948Z,94957.75
2022-08-09T17:59:16.797Z,94955.38
2022-08-09T18:02:07.815Z,94958.91
2022-08-09T18:04:32.326Z,94958.78
2022-08-09T18:07:00.427Z,94956.00
2022-08-09T18:09:41.145Z,94968.47
2022-08-09T18:17:06.437Z,94974.41
2022-08-09T18:20:56.930Z,94987.28
2022-08-09T18:22:23.781Z,94983.84
2022-08-09T18:24:52.969Z,94986.28
2022-08-09T18:28:03.196Z,94983.75
2022-08-09T18:30:38.593Z,94989.31
2022-08-09T18:35:58.858Z,94999.84
2022-08-09T18:38:28.374Z,95010.13
2022-08-09T18:40:56.706Z,95002.97
2022-08-09T18:43:25.456Z,95007.16
2022-08-09T18:46:49.931Z,95009.19
2022-08-09T18:48:42.470Z,95002.50
2022-08-09T18:51:11.350Z,95009.41
2022-08-09T18:58:39.062Z,95022.16
2022-08-09T19:01:07.078Z,95022.88
2022-08-09T19:03:57.900Z,95025.19
2022-08-09T19:06:22.711Z,95025.03
2022-08-09T19:08:55.005Z,95026.72
2022-08-09T19:11:37.914Z,95035.31
2022-08-09T19:16:50.153Z,95032.06
2022-08-09T19:19:25.139Z,95029.19
2022-08-09T19:22:04.391Z,95023.38
2022-08-09T19:24:38.393Z,95019.84
2022-08-09T19:27:21.806Z,95015.22
2022-08-09T19:30:22.962Z,95031.72
2022-08-09T19:32:38.260Z,95023.81
2022-08-09T19:40:13.825Z,95036.59
2022-08-09T19:42:49.517Z,95043.41
2022-08-09T19:45:17.731Z,95036.78
2022-08-09T19:47:46.163Z,95048.66
2022-08-09T19:50:50.451Z,95046.16
2022-08-09T19:53:02.453Z,95043.59
2022-08-09T19:56:03.332Z,95040.13
2022-08-09T20:04:17.252Z,95046.03
2022-08-09T20:06:23.616Z,95039.66
2022-08-09T20:08:56.824Z,95038.53
2022-08-09T20:11:26.157Z,95041.88
2022-08-09T20:13:55.069Z,95039.97
2022-08-09T20:16:38.150Z,95039.56
2022-08-09T20:19:47.491Z,95035.22
2022-08-09T20:26:55.631Z,95030.81
2022-08-09T20:29:28.748Z,95018.91
2022-08-09T20:32:29.689Z,95028.94
2022-08-09T20:34:53.130Z,95023.22
2022-08-09T20:37:21.597Z,95019.88
2022-08-09T20:40:15.846Z,95033.72
2022-08-09T20:46:01.811Z,95044.22
2022-08-09T20:48:11.043Z,95051.53
2022-08-09T20:50:48.183Z,95058.53
2022-08-09T20:53:35.712Z,95060.13
2022-08-09T20:56:04.481Z,95073.66
2022-08-09T20:58:33.124Z,95075.69
2022-08-09T21:01:33.081Z,95079.63
2022-08-09T21:06:37.219Z,95066.09
2022-08-09T21:09:11.847Z,95073.38
2022-08-09T21:14:31.217Z,95069.47
2022-08-09T21:17:00.486Z,95076.88
2022-08-09T21:20:19.397Z,95074.13
2022-08-09T21:25:28.346Z,95059.56
2022-08-09T21:28:07.068Z,95060.06
2022-08-09T21:30:37.037Z,95067.84
2022-08-09T21:33:08.655Z,95073.25
2022-08-09T21:35:40.822Z,95080.50
2022-08-09T21:38:20.964Z,95085.69
2022-08-09T21:40:50.710Z,95089.75
2022-08-09T21:47:38.334Z,95085.75
2022-08-09T21:50:06.813Z,95083.25
2022-08-09T21:52:34.326Z,95082.09
2022-08-09T21:55:05.683Z,95081.84
2022-08-09T21:57:38.229Z,95072.00
2022-08-09T22:00:26.285Z,95072.81
2022-08-09T22:06:32.980Z,95068.69
2022-08-09T22:09:00.876Z,95068.69
2022-08-09T22:12:06.670Z,95055.72
2022-08-09T22:14:16.221Z,95061.47
2022-08-09T22:16:44.878Z,95060.19
2022-08-09T22:19:59.273Z,95066.28
2022-08-09T22:22:00.596Z,95054.81
2022-08-09T22:29:45.998Z,95054.50
2022-08-09T22:32:29.957Z,95045.19
2022-08-09T22:35:06.159Z,95055.28
2022-08-09T22:37:35.647Z,95050.59
2022-08-09T22:40:10.587Z,95055.97
2022-08-09T22:42:47.331Z,95058.75
2022-08-09T22:48:50.377Z,95067.03
2022-08-09T22:51:19.772Z,95065.28
2022-08-09T22:54:02.776Z,95056.66
2022-08-09T22:56:33.876Z,95067.03
2022-08-09T22:59:05.964Z,95064.44
2022-08-09T23:01:49.928Z,95058.63
2022-08-09T23:04:18.207Z,95057.44
2022-08-09T23:11:47.097Z,95053.91
2022-08-09T23:14:17.171Z,95061.09
2022-08-09T23:16:45.457Z,95059.28
2022-08-09T23:19:13.348Z,95055.59
2022-08-09T23:21:40.964Z,95051.69
2022-08-09T23:24:08.725Z,95055.19
2022-08-09T23:26:36.518Z,95049.59
2022-08-09T23:31:41.965Z,95052.41
2022-08-09T23:34:09.585Z,95041.97
2022-08-09T23:36:37.452Z,95032.91
2022-08-09T23:39:06.928Z,95031.44
2022-08-09T23:41:35.038Z,95031.59
2022-08-09T23:44:03.226Z,95020.03
2022-08-09T23:46:31.369Z,95021.53
2022-08-09T23:54:03.634Z,95020.88
2022-08-09T23:56:52.451Z,95025.25
2022-08-09T23:59:20.758Z,95025.88
